Latest Coastal Weather Observations for Weipa

IDQ60701

Issued at 1:31 pm EST Saturday 16 December 2017 (issued every 10 minutes, with the page automatically refreshed every 10 minutes)

About coastal observations | Map of coastal stations | Coastal observations for QLD | Marine services | Other Formats
Station Details ID: 027045 Name: WEIPA AERO Lat: -12.68 Lon: 141.92 Height: 17.96 m
Data from the previous 72 hours. | See also: Recent months at Weipa
Date/Time
EST
Temp
°C
Wind Pressure Rain since
9am
mm
Weather Cloud Vis
km
Sea
Height
m
Swell
Dir  Spd
kts
Gust
kts
hPa Trend Height
m
Period
s
Dir
16/01:30pm 33.5 S 6 12 1008.0 - 0.2 - Partly cloudy 10 - - - -
16/01:00pm 32.3 E 4 8 1008.7 - 0.2 - Partly cloudy 10 - - - -
16/12:30pm 31.9 SW 3 5 1009.4 - 0.2 - Partly cloudy 10 - - - -
16/12:00pm 32.0 SSE 3 5 1009.9 - 0.2 - Mostly clear 10 - - - -
16/11:30am 31.3 E 5 9 1010.3 - 0.2 - Partly cloudy 10 - - - -
16/11:00am 30.1 NNE 5 7 1010.7 - 0.2 - Partly cloudy 10 - - - -
16/10:30am 30.4 NE 6 10 1010.9 - 0.2 - - 10 - - - -
16/10:00am 29.2 ENE 6 10 1011.2 - 0.2 - Partly cloudy 10 - - - -
16/09:30am 28.8 E 7 9 1011.1 - 0.0 - Cloudy 10 - - - -
16/09:00am 28.4 ESE 7 9 1011.0 - 33.0 - Mostly cloudy 10 - - - -
16/08:30am 28.0 ESE 7 11 1011.1 - 33.0 - Partly cloudy 10 - - - -
16/08:00am 27.3 E 5 7 1011.0 - 33.0 - Partly cloudy 10 - - - -
16/07:30am 26.1 ESE 6 7 1010.8 - 33.0 - Cloudy 10 - - - -
16/07:00am 25.5 ESE 6 8 1010.4 - 33.0 - Cloudy 10 - - - -
16/06:30am 25.0 E 5 6 1009.9 - 33.0 - Cloudy 10 - - - -
16/06:00am 24.9 ESE 5 6 1009.5 - 33.0 - Cloudy 10 - - - -
16/05:30am 24.8 ESE 3 4 1009.2 - 33.0 - - 10 - - - -
16/05:00am 25.0 ESE 5 5 1008.8 - 33.0 - Partly cloudy 10 - - - -
16/04:30am 25.1 ENE 4 5 1008.5 - 33.0 - Cloudy 10 - - - -
16/04:00am 25.0 CALM 0 0 1008.4 - 33.0 - Cloudy 10 - - - -
16/03:30am 25.1 SSE 3 4 1008.2 - 33.0 - Partly cloudy 10 - - - -
16/03:00am 25.0 CALM 0 0 1008.1 - 33.0 - Mostly cloudy 10 - - - -
16/02:30am 25.0 ESE 1 3 1008.1 - 33.0 - Partly cloudy 10 - - - -
16/02:00am 24.9 E 3 4 1008.3 - 33.0 - Partly cloudy 10 - - - -
16/01:30am 24.9 E 3 4 1008.6 - 33.0 - Cloudy 10 - - - -
16/01:00am 24.8 E 5 6 1008.4 - 33.0 - Cloudy 10 - - - -
16/12:30am 24.9 CALM 0 0 1008.8 - 33.0 - Cloudy 10 - - - -
16/12:00am 24.6 NNW 3 4 1009.3 - 33.0 - Cloudy 10 - - - -
 
Date/Time
EST
Temp
°C
Wind Pressure Rain since
9am
mm
Weather Cloud Vis
km
Sea
Height
m
Swell
Dir  Spd
kts
Gust
kts
hPa Trend Height
m
Period
s
Dir
15/11:30pm 24.8 CALM 0 0 1009.6 - 33.0 - Partly cloudy 10 - - - -
15/11:00pm 24.5 NNW 3 7 1009.6 - 33.0 - Partly cloudy 10 - - - -
15/10:30pm 24.3 NNW 7 9 1009.6 - 33.0 - Partly cloudy 10 - - - -
15/10:25pm 24.2 NNW 7 8 1009.7 - 33.0 - Partly cloudy 9 - - - -
15/10:04pm 24.2 NNW 7 10 1009.7 - 32.8 - Partly cloudy 4 - - - -
15/10:00pm 23.9 NNW 7 10 1009.7 - 32.6 - Partly cloudy 4 - - - -
15/09:30pm 24.1 N 3 8 1009.6 - 23.0 - Partly cloudy 0.4 - - - -
15/09:21pm 24.4 SW 3 6 1009.5 - 17.8 - Partly cloudy 0.4 - - - -
15/09:00pm 25.9 N 13 17 1008.8 - 6.0 Rain Cloudy 1 - - - -
15/08:43pm 26.0 NNE 10 14 1008.4 - 0.8 - Partly cloudy 6 - - - -
15/08:30pm 27.7 NNE 7 11 1008.2 - 0.0 - Partly cloudy 10 - - - -
15/08:00pm 29.0 NE 4 6 1007.6 - 0.0 - Partly cloudy 10 - - - -
15/07:30pm 29.1 N 5 7 1007.2 - 0.0 - Partly cloudy 10 - - - -
15/07:00pm 29.2 WSW 7 11 1006.0 - 0.0 - - 10 - - - -
15/06:30pm 29.8 WSW 8 11 1005.7 - 0.0 - - 10 - - - -
15/06:00pm 30.3 W 9 13 1005.4 - 0.0 - - 10 - - - -
15/05:30pm 31.0 W 9 15 1005.0 - 0.0 - - 10 - - - -
15/05:00pm 31.7 W 10 13 1004.7 - 0.0 - - 10 - - - -
15/04:30pm 32.6 W 8 13 1004.6 - 0.0 - - 10 - - - -
15/04:00pm 33.0 W 10 13 1004.5 - 0.0 - Partly cloudy 10 - - - -
15/03:30pm 34.0 SW 6 9 1004.7 - 0.0 - - 10 - - - -
15/03:00pm 34.1 SW 6 10 1005.0 - 0.0 - - 10 - - - -
15/02:30pm 33.9 S 5 11 1005.5 - 0.0 - Partly cloudy 10 - - - -
15/02:00pm 33.8 ESE 4 6 1005.9 - 0.0 - Partly cloudy 10 - - - -
15/01:30pm 33.4 E 4 10 1006.5 - 0.0 - Partly cloudy 10 - - - -
15/01:00pm 32.6 ENE 5 9 1006.9 - 0.0 - Partly cloudy 10 - - - -
15/12:30pm 32.1 ENE 5 10 1007.4 - 0.0 - - 10 - - - -
15/12:00pm 31.7 ENE 7 10 1007.9 - 0.0 - Mostly clear 10 - - - -
15/11:30am 31.5 E 8 11 1008.2 - 0.0 - Partly cloudy 10 - - - -
15/11:00am 30.5 E 7 11 1008.7 - 0.0 - Partly cloudy 10 - - - -
15/10:30am 30.2 ENE 7 11 1009.0 - 0.0 - Partly cloudy 10 - - - -
15/10:00am 29.5 E 7 12 1009.4 - 0.0 - Partly cloudy 10 - - - -
15/09:30am 29.0 ESE 11 15 1009.5 - 0.0 - - 10 - - - -
15/09:00am 28.7 ESE 10 13 1009.5 - 8.4 - - 10 - - - -
15/08:30am 27.9 ESE 8 11 1009.6 - 8.4 - - 10 - - - -
15/08:00am 26.9 ESE 7 9 1009.5 - 8.4 - - 10 - - - -
15/07:30am 26.1 ESE 5 6 1009.7 - 8.4 - Partly cloudy 10 - - - -
15/07:00am 25.6 SE 4 5 1009.8 - 8.4 - Partly cloudy 10 - - - -
15/06:30am 25.6 SE 4 5 1009.4 - 8.4 - Partly cloudy 10 - - - -
15/06:00am 25.5 ESE 1 4 1009.0 - 8.4 - Cloudy 10 - - - -
15/05:30am 25.4 CALM 0 0 1008.6 - 8.4 - Cloudy 10 - - - -
15/05:00am 25.3 ESE 3 4 1008.1 - 8.4 - Cloudy 10 - - - -
15/04:30am 25.3 E 4 5 1008.0 - 8.4 - Cloudy 10 - - - -
15/04:00am 25.2 SE 4 5 1007.8 - 8.4 - Cloudy 10 - - - -
15/03:30am 25.4 ESE 4 4 1007.7 - 8.4 - Cloudy 10 - - - -
15/03:00am 25.4 E 3 4 1007.7 - 8.4 - Mostly cloudy 10 - - - -
15/02:30am 25.2 CALM 0 0 1007.9 - 8.4 - Partly cloudy 10 - - - -
15/02:00am 25.1 SE 3 5 1007.9 - 8.4 - Cloudy 10 - - - -
15/01:30am 25.1 SSE 3 4 1008.3 - 8.4 - Cloudy 10 - - - -
15/01:00am 25.3 S 1 5 1008.6 - 8.4 - Cloudy 10 - - - -
15/12:30am 25.5 CALM 0 0 1008.6 - 8.4 - Partly cloudy 10 - - - -
15/12:00am 25.4 SSW 2 4 1008.8 - 8.4 - Mostly cloudy 10 - - - -
 
Date/Time
EST
Temp
°C
Wind Pressure Rain since
9am
mm
Weather Cloud Vis
km
Sea
Height
m
Swell
Dir  Spd
kts
Gust
kts
hPa Trend Height
m
Period
s
Dir
14/11:30pm 25.2 SW 4 5 1009.1 - 8.4 - Partly cloudy 10 - - - -
14/11:00pm 25.1 SW 4 7 1009.0 - 8.4 - Partly cloudy 10 - - - -
14/10:30pm 25.3 SW 4 5 1009.0 - 8.4 - Partly cloudy 10 - - - -
14/10:00pm 25.3 W 1 3 1008.6 - 8.4 - Partly cloudy 10 - - - -
14/09:33pm 25.0 CALM 0 3 1008.4 - 8.4 - Partly cloudy 10 - - - -
14/09:30pm 25.0 WSW 1 5 1008.4 - 8.2 - Partly cloudy 10 - - - -
14/09:00pm 25.2 N 5 9 1008.3 - 4.2 Rain Mostly cloudy 6 - - - -
14/08:30pm 25.0 N 7 13 1007.8 - 1.6 - Partly cloudy 2 - - - -
14/08:25pm 24.9 N 9 14 1007.9 - 0.6 - Partly cloudy 5 - - - -
14/08:00pm 25.5 NNE 11 19 1007.2 - 0.0 - Partly cloudy 7 - - - -
14/07:30pm 29.3 W 6 9 1006.6 - 0.0 - Partly cloudy 10 - - - -
14/07:00pm 29.4 WNW 7 11 1006.5 - 0.0 - Partly cloudy 10 - - - -
14/06:30pm 29.9 W 7 11 1006.0 - 0.0 - Partly cloudy 10 - - - -
14/06:00pm 30.3 W 8 12 1005.8 - 0.0 - Mostly cloudy 10 - - - -
14/05:30pm 31.8 W 7 11 1005.3 - 0.0 - Partly cloudy 10 - - - -
14/05:00pm 32.3 W 8 11 1004.9 - 0.0 - - 10 - - - -
14/04:30pm 32.9 SW 8 11 1004.6 - 0.0 - Partly cloudy 10 - - - -
14/04:00pm 33.6 WSW 8 12 1004.5 - 0.0 - Partly cloudy 10 - - - -
14/03:30pm 34.4 SW 7 11 1004.7 - 0.0 - Partly cloudy 10 - - - -
14/03:00pm 34.2 SSE 7 11 1005.1 - 0.0 - Mostly clear 10 - - - -
14/02:30pm 33.5 S 7 11 1005.7 - 0.0 - Partly cloudy 10 - - - -
14/02:00pm 33.8 S 7 11 1006.1 - 0.0 - Partly cloudy 10 - - - -
14/01:30pm 34.4 E 7 12 1006.6 - 0.0 - Partly cloudy 10 - - - -
14/01:00pm 33.5 SE 10 15 1007.2 - 0.0 - - 10 - - - -
14/12:30pm 32.4 ESE 7 14 1007.5 - 0.0 - Partly cloudy 10 - - - -
14/12:00pm 32.2 E 10 13 1008.0 - 0.0 - Partly cloudy 10 - - - -
14/11:30am 31.7 E 9 13 1008.3 - 0.0 - Partly cloudy 10 - - - -
14/11:00am 31.4 E 10 14 1008.5 - 0.0 - - 10 - - - -
14/10:30am 30.3 ESE 11 15 1008.7 - 0.0 - - 10 - - - -
14/10:00am 29.9 E 11 15 1009.1 - 0.0 - - 10 - - - -
14/09:30am 29.7 ESE 11 15 1009.6 - 0.0 - - 10 - - - -
14/09:00am 28.7 SE 10 15 1009.9 - 0.0 - Mostly clear 10 - - - -
14/08:30am 28.1 SE 8 13 1010.1 - 0.0 - - 10 - - - -
14/08:00am 27.0 SE 5 7 1009.9 - 0.0 - - 10 - - - -
14/07:30am 26.4 SSE 5 7 1009.6 - 0.0 - - 10 - - - -
14/07:00am 26.0 SE 5 7 1009.2 - 0.0 - - 10 - - - -
14/06:30am 25.0 CALM 0 0 1009.2 - 0.0 - - 10 - - - -
14/06:00am 24.5 E 2 4 1008.9 - 0.0 - Mostly clear 10 - - - -
14/05:30am 24.2 CALM 0 0 1008.7 - 0.0 - - 10 - - - -
14/05:00am 24.4 S 3 4 1008.2 - 0.0 - Partly cloudy 10 - - - -
14/04:30am 24.8 ESE 3 4 1007.9 - 0.0 - - 10 - - - -
14/04:00am 24.8 CALM 0 0 1007.9 - 0.0 - - 10 - - - -
14/03:30am 24.7 CALM 0 0 1007.7 - 0.0 - - 10 - - - -
14/03:00am 24.6 CALM 0 0 1007.9 - 0.0 - Mostly cloudy 10 - - - -
14/02:30am 24.6 CALM 0 0 1008.0 - 0.0 - - 10 - - - -
14/02:00am 24.8 CALM 0 0 1008.0 - 0.0 - Partly cloudy 10 - - - -
14/01:30am 24.9 N 3 3 1008.4 - 0.0 - Partly cloudy 10 - - - -
14/01:00am 25.0 ENE 3 4 1008.5 - 0.0 - Partly cloudy 10 - - - -
14/12:30am 25.1 NE 3 4 1008.7 - 0.0 - Partly cloudy 10 - - - -
14/12:00am 25.4 NE 1 3 1009.3 - 0.0 - Mostly cloudy 10 - - - -
 
Date/Time
EST
Temp
°C
Wind Pressure Rain since
9am
mm
Weather Cloud Vis
km
Sea
Height
m
Swell
Dir  Spd
kts
Gust
kts
hPa Trend Height
m
Period
s
Dir
13/11:30pm 25.5 ENE 3 4 1009.6 - 0.0 - Cloudy 10 - - - -
13/11:00pm 25.5 NE 5 6 1009.5 - 0.0 - Cloudy 10 - - - -
13/10:30pm 25.7 NE 4 5 1009.6 - 0.0 - Cloudy 10 - - - -
13/10:00pm 25.9 NNE 5 7 1009.4 - 0.0 - Partly cloudy 10 - - - -
13/09:30pm 26.4 NNE 6 9 1009.2 - 0.0 - Partly cloudy 10 - - - -
13/09:00pm 26.9 N 5 7 1008.8 - 0.0 - Partly cloudy 10 - - - -
13/08:30pm 26.9 N 5 8 1008.5 - 0.0 - Cloudy 10 - - - -
13/08:00pm 27.2 NNE 5 7 1008.0 - 0.0 - Partly cloudy 10 - - - -
13/07:30pm 27.6 NNE 3 5 1007.7 - 0.0 - Partly cloudy 10 - - - -
13/07:00pm 27.6 N 7 8 1007.5 - 0.0 - Partly cloudy 10 - - - -
13/06:30pm 28.9 NNW 9 13 1007.3 - 0.0 - Partly cloudy 10 - - - -
13/06:00pm 30.8 NW 9 12 1006.4 - 0.0 - Cloudy 10 - - - -
13/05:30pm 30.8 W 6 10 1006.0 - 0.0 - Cloudy 10 - - - -
13/05:00pm 32.1 WSW 8 13 1005.7 - 0.0 - Partly cloudy 10 - - - -
13/04:30pm 32.8 WSW 8 13 1005.3 - 0.0 - - 10 - - - -
13/04:00pm 32.8 WSW 8 14 1005.3 - 0.0 - Partly cloudy 10 - - - -
13/03:30pm 35.3 SW 5 9 1005.2 - 0.0 - Partly cloudy 10 - - - -
13/03:00pm 35.1 E 5 9 1005.5 - 0.0 - Mostly clear 10 - - - -
13/02:30pm 34.9 ESE 8 10 1005.9 - 0.0 - - 10 - - - -
13/02:00pm 34.5 SE 6 11 1006.4 - 0.0 - - 10 - - - -

Other Formats:

Comma delimited format used in spreadsheet applications
http://www.bom.gov.au/fwo/IDQ60701/IDQ60701.94170.axf

JavaScript Object Notation format (JSON) in row-major order
http://www.bom.gov.au/fwo/IDQ60701/IDQ60701.94170.json